Terminal Aerodrome Forecast
Issued by NWS Huntsville, AL

Home | Current Version | Previous Version | Text Only | Print | Product List | Glossary On
Versions: 1 2 3 4 5 6 7 8 9 10 11 12 13
000
FTUS44 KHUN 182328
TAFHSV
TAF
KHSV 182328Z 1900/1924 15008KT P6SM VCSH BKN025
     FM190500 13008KT P6SM OVC012
     FM191600 15008G20KT P6SM OVC050=

USA.gov is the U.S. government's official web portal to all federal, state and local government web resources and services.